sensor_id;sensor_type;location;lat;lon;timestamp;pressure;altitude;pressure_sealevel;temperature;humidity
74960;BME280;63518;49.572;1.106;2023-06-22T00:02:00;99831.22;;;16.73;86.25
74960;BME280;63518;49.572;1.106;2023-06-22T00:04:28;99825.31;;;16.66;85.82
74960;BME280;63518;49.572;1.106;2023-06-22T00:06:55;99837.50;;;16.87;85.28
74960;BME280;63518;49.572;1.106;2023-06-22T00:09:22;99847.69;;;16.92;85.52
74960;BME280;63518;49.572;1.106;2023-06-22T00:11:49;99839.59;;;16.82;84.74
74960;BME280;63518;49.572;1.106;2023-06-22T00:14:16;99816.28;;;16.60;85.04
74960;BME280;63518;49.572;1.106;2023-06-22T00:16:43;99839.78;;;16.77;85.02
74960;BME280;63518;49.572;1.106;2023-06-22T00:19:10;99843.38;;;16.77;85.11
74960;BME280;63518;49.572;1.106;2023-06-22T00:21:39;99837.56;;;16.65;85.33
74960;BME280;63518;49.572;1.106;2023-06-22T00:24:06;99844.94;;;16.61;84.90
74960;BME280;63518;49.572;1.106;2023-06-22T00:26:33;99835.66;;;16.74;85.90
74960;BME280;63518;49.572;1.106;2023-06-22T00:29:05;99837.25;;;16.67;85.77
74960;BME280;63518;49.572;1.106;2023-06-22T00:31:39;99843.59;;;16.58;86.16
74960;BME280;63518;49.572;1.106;2023-06-22T00:34:23;99804.63;;;15.96;87.54
74960;BME280;63518;49.572;1.106;2023-06-22T00:36:50;99813.16;;;16.00;88.00
74960;BME280;63518;49.572;1.106;2023-06-22T00:39:18;99837.88;;;16.24;88.31
74960;BME280;63518;49.572;1.106;2023-06-22T00:41:45;99827.22;;;16.26;88.50
74960;BME280;63518;49.572;1.106;2023-06-22T00:44:12;99838.44;;;16.12;89.00
74960;BME280;63518;49.572;1.106;2023-06-22T00:46:39;99824.16;;;16.05;90.18
74960;BME280;63518;49.572;1.106;2023-06-22T00:49:06;99810.31;;;15.91;90.63
74960;BME280;63518;49.572;1.106;2023-06-22T00:51:33;99831.47;;;16.23;90.44
74960;BME280;63518;49.572;1.106;2023-06-22T00:54:00;99821.03;;;16.06;90.05
74960;BME280;63518;49.572;1.106;2023-06-22T00:56:33;99828.28;;;16.16;89.95
74960;BME280;63518;49.572;1.106;2023-06-22T00:59:03;99794.00;;;15.76;90.67
74960;BME280;63518;49.572;1.106;2023-06-22T01:01:33;99749.88;;;15.74;89.88
74960;BME280;63518;49.572;1.106;2023-06-22T01:04:03;99813.97;;;16.00;90.07
74960;BME280;63518;49.572;1.106;2023-06-22T01:06:40;99729.28;;;15.53;90.41
74960;BME280;63518;49.572;1.106;2023-06-22T01:09:32;99819.34;;;15.97;90.58
74960;BME280;63518;49.572;1.106;2023-06-22T01:12:06;99809.81;;;15.89;91.32
74960;BME280;63518;49.572;1.106;2023-06-22T01:14:35;99811.31;;;15.95;91.25
74960;BME280;63518;49.572;1.106;2023-06-22T01:17:08;99802.63;;;15.88;90.72
74960;BME280;63518;49.572;1.106;2023-06-22T01:22:39;99807.22;;;15.93;91.67
74960;BME280;63518;49.572;1.106;2023-06-22T01:28:50;99790.84;;;15.46;93.44
74960;BME280;63518;49.572;1.106;2023-06-22T01:31:21;99795.78;;;15.72;92.98
74960;BME280;63518;49.572;1.106;2023-06-22T01:33:50;99805.41;;;15.88;93.06
74960;BME280;63518;49.572;1.106;2023-06-22T01:36:18;99784.59;;;15.63;92.21
74960;BME280;63518;49.572;1.106;2023-06-22T01:38:47;99792.50;;;15.70;92.76
74960;BME280;63518;49.572;1.106;2023-06-22T01:41:16;99799.84;;;15.66;93.24
74960;BME280;63518;49.572;1.106;2023-06-22T01:43:45;99782.56;;;15.55;92.13
74960;BME280;63518;49.572;1.106;2023-06-22T01:46:12;99805.81;;;15.59;93.29
74960;BME280;63518;49.572;1.106;2023-06-22T01:48:39;99783.97;;;15.66;92.67
74960;BME280;63518;49.572;1.106;2023-06-22T01:51:06;99783.72;;;15.76;91.41
74960;BME280;63518;49.572;1.106;2023-06-22T01:53:33;99794.19;;;15.79;91.69
74960;BME280;63518;49.572;1.106;2023-06-22T01:56:08;99789.25;;;15.54;91.93
74960;BME280;63518;49.572;1.106;2023-06-22T01:58:50;99762.09;;;15.29;92.41
74960;BME280;63518;49.572;1.106;2023-06-22T02:01:42;99724.81;;;15.07;92.08
74960;BME280;63518;49.572;1.106;2023-06-22T02:04:19;99795.31;;;15.56;92.05
74960;BME280;63518;49.572;1.106;2023-06-22T02:06:50;99793.09;;;15.80;92.10
74960;BME280;63518;49.572;1.106;2023-06-22T02:09:20;99789.25;;;15.54;92.55
74960;BME280;63518;49.572;1.106;2023-06-22T02:11:53;99790.84;;;15.46;93.47
74960;BME280;63518;49.572;1.106;2023-06-22T02:14:24;99725.84;;;15.11;92.47
74960;BME280;63518;49.572;1.106;2023-06-22T02:16:59;99790.66;;;15.43;92.81
74960;BME280;63518;49.572;1.106;2023-06-22T02:19:27;99767.66;;;15.29;93.08
74960;BME280;63518;49.572;1.106;2023-06-22T02:21:54;99803.47;;;15.52;92.63
74960;BME280;63518;49.572;1.106;2023-06-22T02:24:21;99780.41;;;15.30;93.75
74960;BME280;63518;49.572;1.106;2023-06-22T02:26:50;99784.72;;;15.36;93.47
74960;BME280;63518;49.572;1.106;2023-06-22T02:29:17;99784.81;;;15.67;93.72
74960;BME280;63518;49.572;1.106;2023-06-22T02:31:44;99780.78;;;15.37;94.84
74960;BME280;63518;49.572;1.106;2023-06-22T02:34:29;99728.22;;;15.04;94.88
74960;BME280;63518;49.572;1.106;2023-06-22T02:37:04;99742.56;;;15.34;95.57
74960;BME280;63518;49.572;1.106;2023-06-22T02:39:31;99739.72;;;15.11;96.21
74960;BME280;63518;49.572;1.106;2023-06-22T02:41:59;99761.03;;;15.38;95.75
74960;BME280;63518;49.572;1.106;2023-06-22T02:44:26;99752.56;;;15.21;97.08
74960;BME280;63518;49.572;1.106;2023-06-22T02:46:53;99758.91;;;15.35;96.26
74960;BME280;63518;49.572;1.106;2023-06-22T02:49:23;99744.56;;;15.19;97.59
74960;BME280;63518;49.572;1.106;2023-06-22T02:51:50;99744.13;;;15.12;97.92
74960;BME280;63518;49.572;1.106;2023-06-22T02:54:17;99737.66;;;15.17;96.84
74960;BME280;63518;49.572;1.106;2023-06-22T02:56:44;99737.31;;;15.18;97.45
74960;BME280;63518;49.572;1.106;2023-06-22T02:59:12;99746.91;;;15.26;97.87
74960;BME280;63518;49.572;1.106;2023-06-22T03:01:38;99731.16;;;15.21;97.07
74960;BME280;63518;49.572;1.106;2023-06-22T03:04:09;99758.28;;;15.24;97.10
74960;BME280;63518;49.572;1.106;2023-06-22T03:06:36;99738.50;;;15.04;97.87
74960;BME280;63518;49.572;1.106;2023-06-22T03:09:04;99750.81;;;15.11;98.66
74960;BME280;63518;49.572;1.106;2023-06-22T03:11:33;99762.91;;;15.65;95.76
74960;BME280;63518;49.572;1.106;2023-06-22T03:14:03;99780.53;;;15.47;95.91
74960;BME280;63518;49.572;1.106;2023-06-22T03:16:30;99767.97;;;15.27;96.60
74960;BME280;63518;49.572;1.106;2023-06-22T03:18:57;99759.53;;;15.18;97.59
74960;BME280;63518;49.572;1.106;2023-06-22T03:21:28;99701.25;;;14.68;98.57
74960;BME280;63518;49.572;1.106;2023-06-22T03:23:55;99745.72;;;14.91;100.00
74960;BME280;63518;49.572;1.106;2023-06-22T03:26:23;99763.25;;;15.14;99.72
74960;BME280;63518;49.572;1.106;2023-06-22T03:28:53;99756.78;;;15.05;100.00
74960;BME280;63518;49.572;1.106;2023-06-22T03:31:26;99732.06;;;14.81;100.00
74960;BME280;63518;49.572;1.106;2023-06-22T03:33:54;99702.38;;;14.67;100.00
74960;BME280;63518;49.572;1.106;2023-06-22T03:36:21;99756.81;;;14.91;100.00
74960;BME280;63518;49.572;1.106;2023-06-22T03:38:50;99721.50;;;14.69;100.00
74960;BME280;63518;49.572;1.106;2023-06-22T03:41:17;99726.19;;;14.82;100.00
74960;BME280;63518;49.572;1.106;2023-06-22T03:43:44;99739.09;;;15.01;100.00
74960;BME280;63518;49.572;1.106;2023-06-22T03:46:11;99726.59;;;14.89;100.00
74960;BME280;63518;49.572;1.106;2023-06-22T03:48:38;99742.94;;;14.91;100.00
74960;BME280;63518;49.572;1.106;2023-06-22T03:51:05;99734.09;;;14.89;100.00
74960;BME280;63518;49.572;1.106;2023-06-22T03:53:32;99730.28;;;14.98;100.00
74960;BME280;63518;49.572;1.106;2023-06-22T03:55:59;99715.59;;;14.98;100.00
74960;BME280;63518;49.572;1.106;2023-06-22T03:58:26;99729.13;;;15.00;100.00
74960;BME280;63518;49.572;1.106;2023-06-22T04:00:59;99694.88;;;14.68;100.00
74960;BME280;63518;49.572;1.106;2023-06-22T04:03:26;99741.28;;;14.90;100.00
74960;BME280;63518;49.572;1.106;2023-06-22T04:05:54;99741.50;;;14.93;100.00
74960;BME280;63518;49.572;1.106;2023-06-22T04:08:21;99731.09;;;14.99;100.00
74960;BME280;63518;49.572;1.106;2023-06-22T04:10:48;99734.69;;;15.00;100.00
74960;BME280;63518;49.572;1.106;2023-06-22T04:13:14;99713.38;;;14.86;100.00
74960;BME280;63518;49.572;1.106;2023-06-22T04:15:41;99737.84;;;15.20;100.00
74960;BME280;63518;49.572;1.106;2023-06-22T04:18:08;99734.72;;;15.36;99.77
74960;BME280;63518;49.572;1.106;2023-06-22T04:20:35;99754.97;;;15.36;100.00
74960;BME280;63518;49.572;1.106;2023-06-22T04:23:03;99723.22;;;15.29;99.54
74960;BME280;63518;49.572;1.106;2023-06-22T04:25:30;99747.72;;;15.13;99.56
74960;BME280;63518;49.572;1.106;2023-06-22T04:27:57;99753.06;;;15.23;100.00
74960;BME280;63518;49.572;1.106;2023-06-22T04:30:24;99742.09;;;15.40;99.79
74960;BME280;63518;49.572;1.106;2023-06-22T04:32:55;99721.91;;;15.12;98.85
74960;BME280;63518;49.572;1.106;2023-06-22T04:35:26;99751.94;;;15.46;98.52
74960;BME280;63518;49.572;1.106;2023-06-22T04:37:57;99738.84;;;15.24;98.69
74960;BME280;63518;49.572;1.106;2023-06-22T04:40:24;99765.78;;;15.38;99.35
74960;BME280;63518;49.572;1.106;2023-06-22T04:43:04;99735.59;;;15.22;99.03
74960;BME280;63518;49.572;1.106;2023-06-22T04:45:33;99749.09;;;15.38;98.83
74960;BME280;63518;49.572;1.106;2023-06-22T04:48:00;99738.38;;;15.45;99.02
74960;BME280;63518;49.572;1.106;2023-06-22T04:50:27;99767.44;;;15.61;98.21
74960;BME280;63518;49.572;1.106;2023-06-22T04:52:54;99772.28;;;15.56;97.46
74960;BME280;63518;49.572;1.106;2023-06-22T04:55:21;99744.06;;;15.04;97.54
74960;BME280;63518;49.572;1.106;2023-06-22T04:57:48;99761.47;;;15.32;97.14
74960;BME280;63518;49.572;1.106;2023-06-22T05:00:19;99752.78;;;15.69;95.13
74960;BME280;63518;49.572;1.106;2023-06-22T05:02:49;99768.69;;;15.55;94.93
74960;BME280;63518;49.572;1.106;2023-06-22T05:05:16;99771.53;;;15.64;94.95
74960;BME280;63518;49.572;1.106;2023-06-22T05:07:49;99760.50;;;15.72;94.01
74960;BME280;63518;49.572;1.106;2023-06-22T05:10:17;99759.19;;;15.78;94.43
74960;BME280;63518;49.572;1.106;2023-06-22T05:12:45;99729.94;;;15.50;94.31
74960;BME280;63518;49.572;1.106;2023-06-22T05:15:12;99779.28;;;15.53;96.43
74960;BME280;63518;49.572;1.106;2023-06-22T05:17:39;99768.69;;;15.55;96.66
74960;BME280;63518;49.572;1.106;2023-06-22T05:20:12;99770.03;;;15.58;95.41
74960;BME280;63518;49.572;1.106;2023-06-22T05:22:39;99778.78;;;15.51;96.15
74960;BME280;63518;49.572;1.106;2023-06-22T05:25:09;99779.78;;;15.55;96.27
74960;BME280;63518;49.572;1.106;2023-06-22T05:27:37;99761.88;;;15.84;96.34
74960;BME280;63518;49.572;1.106;2023-06-22T05:30:08;99751.19;;;15.77;95.53
74960;BME280;63518;49.572;1.106;2023-06-22T05:32:36;99741.28;;;15.62;96.31
74960;BME280;63518;49.572;1.106;2023-06-22T05:35:03;99753.69;;;15.87;95.60
74960;BME280;63518;49.572;1.106;2023-06-22T05:37:31;99755.00;;;16.12;95.22
74960;BME280;63518;49.572;1.106;2023-06-22T05:39:58;99749.94;;;16.14;95.03
74960;BME280;63518;49.572;1.106;2023-06-22T05:42:25;99748.03;;;15.70;96.12
74960;BME280;63518;49.572;1.106;2023-06-22T05:44:53;99742.28;;;16.20;94.89
74960;BME280;63518;49.572;1.106;2023-06-22T05:47:20;99747.66;;;16.16;96.22
74960;BME280;63518;49.572;1.106;2023-06-22T05:49:47;99744.78;;;16.21;95.32
74960;BME280;63518;49.572;1.106;2023-06-22T05:52:14;99751.06;;;16.35;95.31
74960;BME280;63518;49.572;1.106;2023-06-22T05:54:41;99743.22;;;16.38;94.68
74960;BME280;63518;49.572;1.106;2023-06-22T05:57:11;99737.16;;;16.35;94.28
74960;BME280;63518;49.572;1.106;2023-06-22T05:59:38;99732.25;;;16.10;94.45
74960;BME280;63518;49.572;1.106;2023-06-22T06:02:05;99734.56;;;16.17;94.68
74960;BME280;63518;49.572;1.106;2023-06-22T06:04:32;99740.56;;;16.32;95.04
74960;BME280;63518;49.572;1.106;2023-06-22T06:06:59;99746.44;;;16.31;94.32
74960;BME280;63518;49.572;1.106;2023-06-22T06:09:27;99697.84;;;16.28;93.79
74960;BME280;63518;49.572;1.106;2023-06-22T06:11:54;99725.59;;;16.59;93.56
74960;BME280;63518;49.572;1.106;2023-06-22T06:14:21;99735.66;;;16.86;92.90
74960;BME280;63518;49.572;1.106;2023-06-22T06:16:49;99744.28;;;16.68;93.75
74960;BME280;63518;49.572;1.106;2023-06-22T06:19:16;99748.38;;;16.70;93.84
74960;BME280;63518;49.572;1.106;2023-06-22T06:21:43;99732.06;;;16.38;94.01
74960;BME280;63518;49.572;1.106;2023-06-22T06:24:11;99738.63;;;16.42;93.91
74960;BME280;63518;49.572;1.106;2023-06-22T06:26:38;99745.97;;;16.95;92.93
74960;BME280;63518;49.572;1.106;2023-06-22T06:29:08;99742.03;;;16.96;93.10
74960;BME280;63518;49.572;1.106;2023-06-22T06:31:34;99744.84;;;17.04;93.05
74960;BME280;63518;49.572;1.106;2023-06-22T06:34:02;99737.16;;;17.10;91.78
74960;BME280;63518;49.572;1.106;2023-06-22T06:36:29;99746.47;;;16.97;91.95
74960;BME280;63518;49.572;1.106;2023-06-22T06:38:56;99739.13;;;17.09;93.06
74960;BME280;63518;49.572;1.106;2023-06-22T06:41:23;99726.78;;;16.76;92.94
74960;BME280;63518;49.572;1.106;2023-06-22T06:43:50;99737.16;;;16.35;93.86
74960;BME280;63518;49.572;1.106;2023-06-22T06:46:17;99735.19;;;17.02;93.36
74960;BME280;63518;49.572;1.106;2023-06-22T06:48:46;99762.44;;;17.39;92.17
74960;BME280;63518;49.572;1.106;2023-06-22T06:51:13;99747.94;;;17.03;93.13
74960;BME280;63518;49.572;1.106;2023-06-22T06:53:40;99733.56;;;17.09;92.04
74960;BME280;63518;49.572;1.106;2023-06-22T06:56:07;99738.34;;;17.17;91.58
74960;BME280;63518;49.572;1.106;2023-06-22T06:58:35;99741.56;;;17.02;93.21
74960;BME280;63518;49.572;1.106;2023-06-22T07:01:03;99743.19;;;16.86;93.62
74960;BME280;63518;49.572;1.106;2023-06-22T07:03:29;99752.75;;;17.28;94.21
74960;BME280;63518;49.572;1.106;2023-06-22T07:05:56;99710.72;;;16.73;93.99
74960;BME280;63518;49.572;1.106;2023-06-22T07:08:23;99735.25;;;16.62;95.65
74960;BME280;63518;49.572;1.106;2023-06-22T07:10:51;99753.81;;;16.84;95.04
74960;BME280;63518;49.572;1.106;2023-06-22T07:13:18;99751.13;;;17.27;93.71
74960;BME280;63518;49.572;1.106;2023-06-22T07:15:45;99751.28;;;17.39;91.59
74960;BME280;63518;49.572;1.106;2023-06-22T07:18:12;99747.50;;;17.79;91.63
74960;BME280;63518;49.572;1.106;2023-06-22T07:20:39;99755.38;;;17.51;89.46
74960;BME280;63518;49.572;1.106;2023-06-22T07:23:07;99761.25;;;17.14;93.13
74960;BME280;63518;49.572;1.106;2023-06-22T07:25:34;99764.88;;;17.67;92.56
74960;BME280;63518;49.572;1.106;2023-06-22T07:28:05;99763.38;;;17.61;91.57
74960;BME280;63518;49.572;1.106;2023-06-22T07:30:33;99775.53;;;17.65;91.00
74960;BME280;63518;49.572;1.106;2023-06-22T07:33:01;99765.50;;;17.90;91.04
74960;BME280;63518;49.572;1.106;2023-06-22T07:35:30;99764.22;;;17.27;91.00
74960;BME280;63518;49.572;1.106;2023-06-22T07:37:57;99780.78;;;17.32;92.69
74960;BME280;63518;49.572;1.106;2023-06-22T07:40:32;99776.19;;;17.79;91.59
74960;BME280;63518;49.572;1.106;2023-06-22T07:43:02;99755.66;;;17.84;91.26
74960;BME280;63518;49.572;1.106;2023-06-22T07:45:30;99771.88;;;17.90;91.41
74960;BME280;63518;49.572;1.106;2023-06-22T07:47:57;99757.16;;;17.81;89.90
74960;BME280;63518;49.572;1.106;2023-06-22T07:50:24;99765.88;;;17.62;89.68
74960;BME280;63518;49.572;1.106;2023-06-22T07:52:51;99752.91;;;17.66;88.76
74960;BME280;63518;49.572;1.106;2023-06-22T07:55:19;99758.84;;;18.67;88.75
74960;BME280;63518;49.572;1.106;2023-06-22T07:57:49;99718.59;;;18.68;85.81
74960;BME280;63518;49.572;1.106;2023-06-22T08:00:18;99762.97;;;18.99;87.44
74960;BME280;63518;49.572;1.106;2023-06-22T08:02:47;99764.47;;;19.18;86.37
74960;BME280;63518;49.572;1.106;2023-06-22T08:05:15;99759.56;;;18.85;86.57
74960;BME280;63518;49.572;1.106;2023-06-22T08:07:45;99785.00;;;19.22;84.93
74960;BME280;63518;49.572;1.106;2023-06-22T08:10:14;99771.84;;;19.22;84.32
74960;BME280;63518;49.572;1.106;2023-06-22T08:12:42;99773.66;;;18.97;83.54
74960;BME280;63518;49.572;1.106;2023-06-22T08:15:09;99770.56;;;19.20;84.85
74960;BME280;63518;49.572;1.106;2023-06-22T08:17:37;99771.22;;;18.87;86.22
74960;BME280;63518;49.572;1.106;2023-06-22T08:20:06;99778.00;;;18.39;85.65
74960;BME280;63518;49.572;1.106;2023-06-22T08:22:39;99770.41;;;18.86;85.16
74960;BME280;63518;49.572;1.106;2023-06-22T08:25:09;99749.16;;;19.24;84.77
74960;BME280;63518;49.572;1.106;2023-06-22T08:27:36;99771.69;;;18.98;85.73
74960;BME280;63518;49.572;1.106;2023-06-22T08:30:04;99767.47;;;19.33;85.99
74960;BME280;63518;49.572;1.106;2023-06-22T08:32:31;99771.31;;;18.70;86.03
74960;BME280;63518;49.572;1.106;2023-06-22T08:35:02;99763.81;;;18.62;85.10
74960;BME280;63518;49.572;1.106;2023-06-22T08:37:29;99773.44;;;19.02;85.97
74960;BME280;63518;49.572;1.106;2023-06-22T08:40:06;99767.25;;;18.97;84.63
74960;BME280;63518;49.572;1.106;2023-06-22T08:42:40;99787.94;;;19.46;85.34
74960;BME280;63518;49.572;1.106;2023-06-22T08:45:07;99778.47;;;19.59;85.33
74960;BME280;63518;49.572;1.106;2023-06-22T08:47:34;99777.63;;;19.17;84.24
74960;BME280;63518;49.572;1.106;2023-06-22T08:50:02;99783.16;;;19.26;85.56
74960;BME280;63518;49.572;1.106;2023-06-22T08:52:32;99773.81;;;20.30;83.72
74960;BME280;63518;49.572;1.106;2023-06-22T08:55:01;99765.91;;;19.86;83.60
74960;BME280;63518;49.572;1.106;2023-06-22T08:57:28;99768.53;;;19.29;83.40
74960;BME280;63518;49.572;1.106;2023-06-22T08:59:57;99754.19;;;19.09;84.39
74960;BME280;63518;49.572;1.106;2023-06-22T09:02:27;99786.28;;;19.87;83.41
74960;BME280;63518;49.572;1.106;2023-06-22T09:04:58;99787.03;;;19.33;84.74
74960;BME280;63518;49.572;1.106;2023-06-22T09:07:25;99800.41;;;19.69;84.35
74960;BME280;63518;49.572;1.106;2023-06-22T09:09:52;99788.69;;;19.55;84.06
74960;BME280;63518;49.572;1.106;2023-06-22T09:12:20;99784.19;;;19.42;84.70
74960;BME280;63518;49.572;1.106;2023-06-22T09:14:49;99795.41;;;19.96;82.84
74960;BME280;63518;49.572;1.106;2023-06-22T09:17:16;99781.09;;;19.77;84.29
74960;BME280;63518;49.572;1.106;2023-06-22T09:19:43;99802.59;;;19.43;85.03
74960;BME280;63518;49.572;1.106;2023-06-22T09:22:10;99805.38;;;19.22;84.98
74960;BME280;63518;49.572;1.106;2023-06-22T09:24:36;99791.75;;;19.62;86.05
74960;BME280;63518;49.572;1.106;2023-06-22T09:27:03;99813.00;;;19.84;84.55
74960;BME280;63518;49.572;1.106;2023-06-22T09:29:30;99801.22;;;20.24;83.99
74960;BME280;63518;49.572;1.106;2023-06-22T09:32:00;99808.28;;;20.09;82.02
74960;BME280;63518;49.572;1.106;2023-06-22T09:34:27;99807.59;;;19.08;85.77
74960;BME280;63518;49.572;1.106;2023-06-22T09:36:54;99799.34;;;19.11;84.08
74960;BME280;63518;49.572;1.106;2023-06-22T09:39:24;99800.75;;;20.79;80.94
74960;BME280;63518;49.572;1.106;2023-06-22T09:41:51;99822.66;;;19.87;83.43
74960;BME280;63518;49.572;1.106;2023-06-22T09:44:19;99794.00;;;19.69;84.08
74960;BME280;63518;49.572;1.106;2023-06-22T09:46:46;99810.91;;;19.93;83.62
74960;BME280;63518;49.572;1.106;2023-06-22T09:49:13;99781.84;;;20.19;82.71
74960;BME280;63518;49.572;1.106;2023-06-22T09:51:40;99804.59;;;20.17;82.83
74960;BME280;63518;49.572;1.106;2023-06-22T09:54:07;99795.50;;;19.04;85.53
74960;BME280;63518;49.572;1.106;2023-06-22T09:56:34;99770.06;;;19.18;84.91
74960;BME280;63518;49.572;1.106;2023-06-22T09:59:01;99811.94;;;19.47;84.94
74960;BME280;63518;49.572;1.106;2023-06-22T10:01:44;99819.84;;;20.08;82.33
74960;BME280;63518;49.572;1.106;2023-06-22T10:04:11;99817.09;;;21.02;81.92
74960;BME280;63518;49.572;1.106;2023-06-22T10:06:38;99817.19;;;20.93;79.28
74960;BME280;63518;49.572;1.106;2023-06-22T10:09:07;99824.22;;;20.87;79.45
74960;BME280;63518;49.572;1.106;2023-06-22T10:11:34;99818.38;;;21.81;78.38
74960;BME280;63518;49.572;1.106;2023-06-22T10:14:02;99823.03;;;21.77;78.40
74960;BME280;63518;49.572;1.106;2023-06-22T10:16:31;99834.50;;;20.95;79.31
74960;BME280;63518;49.572;1.106;2023-06-22T10:18:59;99829.91;;;21.15;80.79
74960;BME280;63518;49.572;1.106;2023-06-22T10:21:26;99833.53;;;21.28;81.16
74960;BME280;63518;49.572;1.106;2023-06-22T10:24:00;99828.72;;;20.55;80.05
74960;BME280;63518;49.572;1.106;2023-06-22T10:26:33;99836.38;;;19.80;83.62
74960;BME280;63518;49.572;1.106;2023-06-22T10:29:01;99835.59;;;19.50;84.10
74960;BME280;63518;49.572;1.106;2023-06-22T10:31:42;99832.00;;;21.30;81.12
74960;BME280;63518;49.572;1.106;2023-06-22T10:34:09;99828.50;;;21.58;82.66
74960;BME280;63518;49.572;1.106;2023-06-22T10:36:36;99832.19;;;20.52;82.74
74960;BME280;63518;49.572;1.106;2023-06-22T10:39:03;99818.94;;;20.28;83.99
74960;BME280;63518;49.572;1.106;2023-06-22T10:41:30;99814.00;;;20.13;81.42
74960;BME280;63518;49.572;1.106;2023-06-22T10:43:57;99797.75;;;19.94;82.81
74960;BME280;63518;49.572;1.106;2023-06-22T10:46:25;99829.69;;;21.08;81.31
74960;BME280;63518;49.572;1.106;2023-06-22T10:48:52;99823.03;;;21.49;80.14
74960;BME280;63518;49.572;1.106;2023-06-22T10:51:22;99815.38;;;21.62;78.80
74960;BME280;63518;49.572;1.106;2023-06-22T10:53:49;99817.06;;;21.39;80.30
74960;BME280;63518;49.572;1.106;2023-06-22T10:56:18;99816.75;;;20.79;78.82
74960;BME280;63518;49.572;1.106;2023-06-22T10:58:45;99820.81;;;20.82;82.56
74960;BME280;63518;49.572;1.106;2023-06-22T11:01:13;99830.03;;;21.83;80.11
74960;BME280;63518;49.572;1.106;2023-06-22T11:04:00;99830.84;;;20.83;76.11
74960;BME280;63518;49.572;1.106;2023-06-22T11:06:27;99819.41;;;22.17;74.34
74960;BME280;63518;49.572;1.106;2023-06-22T11:08:54;99821.28;;;20.84;77.10
74960;BME280;63518;49.572;1.106;2023-06-22T11:11:37;99819.53;;;21.03;77.82
74960;BME280;63518;49.572;1.106;2023-06-22T11:14:04;99805.41;;;20.75;75.90
74960;BME280;63518;49.572;1.106;2023-06-22T11:16:31;99828.50;;;21.09;75.31
74960;BME280;63518;49.572;1.106;2023-06-22T11:18:58;99829.84;;;22.04;74.25
74960;BME280;63518;49.572;1.106;2023-06-22T11:21:25;99834.19;;;21.74;75.64
74960;BME280;63518;49.572;1.106;2023-06-22T11:23:52;99824.91;;;22.89;69.81
74960;BME280;63518;49.572;1.106;2023-06-22T11:26:19;99824.19;;;22.76;71.05
74960;BME280;63518;49.572;1.106;2023-06-22T11:28:47;99837.91;;;22.93;66.00
74960;BME280;63518;49.572;1.106;2023-06-22T11:31:15;99844.91;;;23.35;70.19
74960;BME280;63518;49.572;1.106;2023-06-22T11:34:02;99828.28;;;20.90;72.46
74960;BME280;63518;49.572;1.106;2023-06-22T11:36:29;99836.91;;;23.02;70.39
74960;BME280;63518;49.572;1.106;2023-06-22T11:38:59;99834.44;;;22.25;71.97
74960;BME280;63518;49.572;1.106;2023-06-22T11:41:26;99835.72;;;21.99;75.41
74960;BME280;63518;49.572;1.106;2023-06-22T11:43:53;99822.94;;;20.97;76.32
74960;BME280;63518;49.572;1.106;2023-06-22T11:46:20;99813.00;;;21.76;73.88
74960;BME280;63518;49.572;1.106;2023-06-22T11:48:47;99842.34;;;22.94;71.46
74960;BME280;63518;49.572;1.106;2023-06-22T11:51:14;99819.59;;;22.84;67.84
74960;BME280;63518;49.572;1.106;2023-06-22T11:53:41;99827.53;;;23.13;66.38
74960;BME280;63518;49.572;1.106;2023-06-22T11:56:07;99852.47;;;22.67;62.64
74960;BME280;63518;49.572;1.106;2023-06-22T11:58:36;99838.53;;;22.87;65.32
74960;BME280;63518;49.572;1.106;2023-06-22T12:01:03;99819.53;;;23.31;65.70
74960;BME280;63518;49.572;1.106;2023-06-22T12:03:30;99840.59;;;22.02;68.05
74960;BME280;63518;49.572;1.106;2023-06-22T12:05:57;99830.28;;;21.14;71.98
74960;BME280;63518;49.572;1.106;2023-06-22T12:08:24;99838.47;;;21.83;71.33
74960;BME280;63518;49.572;1.106;2023-06-22T12:10:51;99835.41;;;21.88;72.36
74960;BME280;63518;49.572;1.106;2023-06-22T12:13:18;99837.38;;;21.23;74.65
74960;BME280;63518;49.572;1.106;2023-06-22T12:15:45;99839.72;;;21.33;72.92
74960;BME280;63518;49.572;1.106;2023-06-22T12:18:12;99839.66;;;22.10;74.73
74960;BME280;63518;49.572;1.106;2023-06-22T12:20:41;99835.03;;;22.46;72.61
74960;BME280;63518;49.572;1.106;2023-06-22T12:23:08;99825.41;;;20.41;74.61
74960;BME280;63518;49.572;1.106;2023-06-22T12:25:35;99817.41;;;20.18;74.55
74960;BME280;63518;49.572;1.106;2023-06-22T12:28:02;99826.19;;;21.11;74.08
74960;BME280;63518;49.572;1.106;2023-06-22T12:30:29;99824.31;;;21.80;69.99
74960;BME280;63518;49.572;1.106;2023-06-22T12:32:56;99835.53;;;22.20;70.45
74960;BME280;63518;49.572;1.106;2023-06-22T12:35:24;99846.69;;;23.08;70.64
74960;BME280;63518;49.572;1.106;2023-06-22T12:37:51;99849.81;;;22.74;70.78
74960;BME280;63518;49.572;1.106;2023-06-22T12:40:18;99844.88;;;22.24;71.12
74960;BME280;63518;49.572;1.106;2023-06-22T12:42:45;99859.50;;;23.56;68.22
74960;BME280;63518;49.572;1.106;2023-06-22T12:45:12;99844.38;;;21.66;70.37
74960;BME280;63518;49.572;1.106;2023-06-22T12:47:39;99849.91;;;22.47;66.93
74960;BME280;63518;49.572;1.106;2023-06-22T12:50:06;99853.56;;;22.07;72.05
74960;BME280;63518;49.572;1.106;2023-06-22T12:52:36;99855.53;;;22.78;69.71
74960;BME280;63518;49.572;1.106;2023-06-22T12:55:05;99828.69;;;24.86;67.36
74960;BME280;63518;49.572;1.106;2023-06-22T12:57:33;99849.94;;;23.61;68.06
74960;BME280;63518;49.572;1.106;2023-06-22T13:00:03;99853.69;;;23.84;66.21
74960;BME280;63518;49.572;1.106;2023-06-22T13:02:31;99864.69;;;23.22;70.20
74960;BME280;63518;49.572;1.106;2023-06-22T13:04:58;99862.41;;;22.65;72.88
74960;BME280;63518;49.572;1.106;2023-06-22T13:07:25;99861.69;;;21.44;74.16
74960;BME280;63518;49.572;1.106;2023-06-22T13:09:52;99870.94;;;22.25;74.14
74960;BME280;63518;49.572;1.106;2023-06-22T13:12:22;99874.75;;;21.64;74.01
74960;BME280;63518;49.572;1.106;2023-06-22T13:14:49;99880.72;;;22.59;74.08